Palacios, TX

7:24 AM CDT on April 27, 2015 (GMT -0500)
Wharton Regional | | Change Station
CLOSE
Current Station
Airport
Location: Wharton,
Elevation: 102 ft
Nearby Weather Stations

Elev 102 ft 29.25 °N, 96.15 °W | Updated 9 minutes ago

Fog
Fog
70 °F
Feels Like 70 °F
N
7
Wind Variable Wind from NNE

Today
High -- | Low -- °F
--% Chance of Precip.
Yesterday
High -- | Low -- °F
Precip. -- in
6:47 AM 7:57 PM
Waxing Gibbous, 64% visible
Pressure 29.62 in
Visibility 10.0 miles
Clouds Overcast 600 ft
Dew Point 68 °F
Humidity 93%
Rainfall 0.00 in
Snow Depth Not available.
UV 0 out of 12
Pollen 7.30 out of 12
Air Quality Not available.
Flu Activity Local Activity
METAR KARM 271215Z AUTO 03006KT 10SM OVC006 21/20 A2962 RMK AO2 T02120201

More Conditions Fewer Conditions

Pressure 29.62 in
Visibility 10.0 miles
Clouds Overcast 600 ft
Dew Point 68 °F
Humidity 93%
Rainfall 0.00 in
Snow Depth Not available.
UV 0 out of 12
Pollen 7.30 out of 12
Air Quality Not available.
Flu Activity Local Activity
METAR KARM 271215Z AUTO 03006KT 10SM OVC006 21/20 A2962 RMK AO2 T02120201

More Conditions Fewer Conditions

10-Day Weather Forecast

Almanac

Astronomy

Apr. 27, 2015 Rise Set
Actual Time
Civil Twilight
Nautical Twilight
Astronomical Twilight
Moon
Length of Visible Light
Length of Day
Tomorrow will be .
, % of the Moon is Illuminated

Today's Extremes

State Highs State Lows

Community

WunderPhotos

Upload Photos

1,817,290 photos uploaded!

WunderBlogs® & News

Nearby

Air Quality

  Air Quality AQ Index Pollutant
Not available.

Snow Depth

Station Depth Elevation

Earthquake Activity

City Distance Mag. Time & Date
Minimum magnitude displayed is 2.5.

Coastal Water Temperatures

Place Temperature

Stations

Nearby Weather Stations

Station Location Temp. Windchill Dew Point Humidity Wind Precip. Elev Updated Type